Time;durP1;ratioP1;P1;durP2;ratioP2;P2;SDS_P1;SDS_P2;PMS_P1;PMS_P2;Temp;Humidity;BMP_temperature;BMP_pressure;BME280_temperature;BME280_humidity;BME280_pressure;Samples;Min_cycle;Max_cycle;Signal;HPM_P1;HPM_P2
2021/01/28 00:00:29;;;;;;;14.63;8.25;;;;;;;5.70;75.29;99106.14;1821902;78;21042;-76
2021/01/28 00:02:57;;;;;;;16.60;9.28;;;;;;;5.66;75.50;99097.69;1821731;77;20995;-77
2021/01/28 00:05:28;;;;;;;15.23;7.92;;;;;;;5.61;75.69;99090.66;1821601;78;20979;-77
2021/01/28 00:07:58;;;;;;;15.65;7.83;;;;;;;5.58;76.12;99090.39;1821673;78;21365;-76
2021/01/28 00:10:26;;;;;;;13.60;7.75;;;;;;;5.56;76.39;99091.43;1821869;78;21038;-77
2021/01/28 00:12:55;;;;;;;17.92;9.65;;;;;;;5.53;76.72;99097.63;1821882;78;20927;-78
2021/01/28 00:15:26;;;;;;;14.93;8.78;;;;;;;5.52;77.16;99093.85;1821775;78;20915;-79
2021/01/28 00:17:55;;;;;;;17.27;7.85;;;;;;;5.52;77.32;99090.78;1821947;78;20884;-77
2021/01/28 00:20:29;;;;;;;12.65;7.08;;;;;;;5.54;77.51;99085.49;1822125;78;21327;-77
2021/01/28 00:22:57;;;;;;;11.25;7.10;;;;;;;5.55;77.61;99074.97;1821761;78;21001;-78
2021/01/28 00:25:26;;;;;;;12.43;7.25;;;;;;;5.53;77.83;99085.94;1823673;78;21021;-78
2021/01/28 00:27:54;;;;;;;15.25;8.03;;;;;;;5.53;78.10;99079.91;1825198;77;20938;-79
2021/01/28 00:30:30;;;;;;;15.83;7.05;;;;;;;5.53;78.30;99070.33;1775245;80;20914;-78
2021/01/28 00:32:58;;;;;;;15.18;8.38;;;;;;;5.52;78.76;99071.28;1777180;80;21818;-80
2021/01/28 00:35:33;;;;;;;18.02;8.85;;;;;;;5.52;78.87;99071.28;1773021;80;20985;-75
2021/01/28 00:38:01;;;;;;;15.18;8.15;;;;;;;5.55;79.01;99063.74;1779221;80;20923;-75
2021/01/28 00:43:04;;;;;;;21.05;8.45;;;;;;;5.59;79.44;99051.74;1813615;78;22533;-80
2021/01/28 00:45:34;;;;;;;24.00;10.93;;;;;;;5.55;79.74;99059.84;1784216;79;20986;-78
2021/01/28 00:48:03;;;;;;;23.85;11.65;;;;;;;5.55;79.72;99054.64;1784193;80;21428;-79
2021/01/28 00:50:33;;;;;;;21.65;11.48;;;;;;;5.55;79.80;99049.45;1784212;80;21005;-79
2021/01/28 00:53:02;;;;;;;22.62;11.43;;;;;;;5.58;79.83;99051.39;1784103;80;21049;-77
2021/01/28 00:55:31;;;;;;;20.43;11.25;;;;;;;5.59;80.00;99058.72;1784184;80;21041;-77
2021/01/28 00:58:04;;;;;;;20.40;10.30;;;;;;;5.58;79.99;99052.69;1783209;80;20950;-79
2021/01/28 01:00:38;;;;;;;22.70;10.75;;;;;;;5.59;80.08;99057.42;1784112;80;21198;-78
2021/01/28 01:03:07;;;;;;;23.07;11.67;;;;;;;5.59;80.22;99050.45;1784319;80;20938;-80
2021/01/28 01:05:38;;;;;;;18.92;11.10;;;;;;;5.62;80.24;99048.11;1784165;80;20927;-77
2021/01/28 01:08:12;;;;;;;18.42;10.65;;;;;;;5.67;80.16;99048.66;1784069;80;21357;-78
2021/01/28 01:10:52;;;;;;;18.98;9.13;;;;;;;5.71;80.12;99042.30;1784257;79;21674;-77
2021/01/28 01:13:25;;;;;;;13.25;7.55;;;;;;;5.72;80.04;99042.69;1784062;79;21391;-77
2021/01/28 01:15:55;;;;;;;14.98;7.78;;;;;;;5.72;80.03;99033.58;1782640;80;21033;-77
2021/01/28 01:18:29;;;;;;;14.45;6.87;;;;;;;5.74;80.16;99025.69;1784084;80;20978;-79
2021/01/28 01:20:58;;;;;;;13.10;6.20;;;;;;;5.77;80.18;99015.90;1784098;80;20966;-78
2021/01/28 01:23:28;;;;;;;9.35;6.25;;;;;;;5.84;80.39;99011.59;1784197;80;20930;-78
2021/01/28 01:26:11;;;;;;;13.75;7.33;;;;;;;5.91;80.20;99008.47;1783008;79;21881;-78
2021/01/28 01:28:39;;;;;;;16.52;7.65;;;;;;;5.98;80.11;98998.52;1755495;80;20982;-78
2021/01/28 01:31:09;;;;;;;13.58;7.53;;;;;;;6.04;79.95;99004.62;1782480;80;21531;-78
2021/01/28 01:33:39;;;;;;;23.00;10.43;;;;;;;6.08;79.82;99002.18;1755696;80;20938;-79
2021/01/28 01:36:11;;;;;;;21.07;11.03;;;;;;;6.10;79.52;99005.52;1782989;80;21001;-79
2021/01/28 01:38:44;;;;;;;26.30;11.35;;;;;;;6.05;79.40;99010.20;1783751;80;21363;-78
2021/01/28 01:41:12;;;;;;;16.70;11.18;;;;;;;6.01;79.45;99022.58;1754599;80;20993;-79
2021/01/28 01:43:41;;;;;;;18.20;10.98;;;;;;;5.98;79.31;99031.90;1770811;79;21006;-78
2021/01/28 01:46:12;;;;;;;21.68;12.93;;;;;;;5.93;79.32;99031.31;1770658;81;20931;-77
2021/01/28 01:48:50;;;;;;;27.22;12.85;;;;;;;5.91;79.35;99027.16;1770723;81;21046;-79
2021/01/28 01:51:27;;;;;;;21.57;11.97;;;;;;;5.87;79.41;99035.66;1751477;79;21361;-79
2021/01/28 01:54:04;;;;;;;20.27;9.95;;;;;;;5.88;79.67;99030.80;1770168;79;20942;-78
2021/01/28 01:56:45;;;;;;;17.60;8.23;;;;;;;5.90;79.64;99026.33;1769925;80;20955;-78
2021/01/28 01:59:22;;;;;;;12.37;7.65;;;;;;;5.91;79.61;99026.69;1770053;79;21026;-77
2021/01/28 02:02:11;;;;;;;15.48;7.78;;;;;;;5.90;79.59;99021.12;1753847;81;21065;-78
2021/01/28 02:05:03;;;;;;;14.68;8.85;;;;;;;5.90;79.21;99015.09;1770110;81;21348;-77
2021/01/28 02:07:48;;;;;;;18.70;8.28;;;;;;;5.90;79.09;99017.70;1766852;81;20962;-78
2021/01/28 02:10:36;;;;;;;17.25;9.25;;;;;;;5.89;78.88;99007.77;1770224;79;21002;-78
2021/01/28 02:13:11;;;;;;;13.98;8.50;;;;;;;5.88;78.65;98995.68;1767682;80;20959;-78
2021/01/28 02:15:41;;;;;;;15.30;7.35;;;;;;;5.88;78.60;98999.58;1751144;80;21103;-78
2021/01/28 02:18:09;;;;;;;9.33;6.78;;;;;;;5.89;78.52;98997.81;1770082;80;21378;-78
2021/01/28 02:21:03;;;;;;;15.43;7.87;;;;;;;5.90;78.43;98992.98;1746906;81;20955;-78
2021/01/28 02:23:49;;;;;;;14.03;7.97;;;;;;;5.92;78.51;98991.94;1757747;81;21046;-77
2021/01/28 02:26:22;;;;;;;13.05;7.95;;;;;;;5.98;78.46;98983.77;1769483;79;20994;-79
2021/01/28 02:28:50;;;;;;;20.30;8.75;;;;;;;6.07;78.19;98977.55;1751008;81;20915;-78
2021/01/28 02:31:18;;;;;;;18.87;8.38;;;;;;;6.10;77.62;98974.28;1770251;80;22121;-78
2021/01/28 02:33:52;;;;;;;15.58;8.53;;;;;;;6.12;77.04;98986.73;1770593;81;21001;-76
2021/01/28 02:36:40;;;;;;;12.15;8.68;;;;;;;6.19;76.84;98982.77;1846088;76;22773;-75
2021/01/28 02:39:28;;;;;;;14.28;9.08;;;;;;;6.15;76.34;98985.20;1818107;77;20978;-77
2021/01/28 02:42:01;;;;;;;15.20;8.18;;;;;;;6.15;76.08;98986.98;1818043;79;21443;-78
2021/01/28 02:44:31;;;;;;;14.70;8.08;;;;;;;6.16;76.19;98987.36;1818265;79;20950;-77
2021/01/28 02:47:02;;;;;;;17.62;11.75;;;;;;;6.14;75.42;98995.27;1818075;77;20918;-77
2021/01/28 02:49:51;;;;;;;14.30;8.88;;;;;;;6.09;74.81;98983.05;1812939;79;21033;-78
2021/01/28 02:52:20;;;;;;;13.48;8.03;;;;;;;6.02;74.82;98990.88;1788496;79;20994;-78
2021/01/28 02:54:52;;;;;;;16.42;8.88;;;;;;;5.98;74.73;98998.52;1817819;79;21479;-77
2021/01/28 02:57:20;;;;;;;13.62;9.68;;;;;;;5.96;74.72;99016.03;1818163;77;20934;-78
2021/01/28 02:59:50;;;;;;;12.03;8.65;;;;;;;5.90;74.41;99000.31;1817578;79;20950;-77
2021/01/28 03:02:19;;;;;;;15.43;9.15;;;;;;;5.84;74.37;99008.52;1786454;79;20914;-78
2021/01/28 03:04:47;;;;;;;12.07;8.88;;;;;;;5.81;74.42;99000.45;1784918;79;20943;-79
2021/01/28 03:07:20;;;;;;;17.60;10.40;;;;;;;5.76;73.87;99021.22;1817435;79;21440;-78
2021/01/28 03:09:47;;;;;;;15.35;8.60;;;;;;;5.70;74.13;99011.22;1818070;79;20930;-77
2021/01/28 03:12:17;;;;;;;12.30;8.53;;;;;;;5.67;74.10;99020.50;1816925;79;20938;-76
2021/01/28 03:14:53;;;;;;;13.50;9.20;;;;;;;5.63;73.91;99030.77;1817230;79;21002;-78
2021/01/28 03:17:22;;;;;;;18.27;10.18;;;;;;;5.57;73.85;99018.50;1818141;79;21479;-78
2021/01/28 03:19:52;;;;;;;16.67;10.05;;;;;;;5.53;73.52;99024.00;1817123;79;21197;-78
2021/01/28 03:22:22;;;;;;;17.67;10.05;;;;;;;5.48;73.76;99019.58;1818061;79;20899;-77
2021/01/28 03:25:11;;;;;;;17.52;9.95;;;;;;;5.45;73.33;99019.76;1818143;77;20942;-78
2021/01/28 03:27:40;;;;;;;14.43;8.88;;;;;;;5.42;73.31;99009.09;1817906;79;20915;-78
2021/01/28 03:30:13;;;;;;;15.80;9.45;;;;;;;5.40;73.32;99013.12;1818120;79;21364;-77
2021/01/28 03:32:41;;;;;;;14.58;10.82;;;;;;;5.38;73.42;99018.87;1818189;79;22269;-79
2021/01/28 03:35:12;;;;;;;13.85;9.93;;;;;;;5.36;73.49;99032.91;1822418;78;21080;-78
2021/01/28 03:37:42;;;;;;;15.48;10.53;;;;;;;5.33;73.56;99023.52;1833332;77;21344;-78
2021/01/28 03:40:11;;;;;;;16.30;10.25;;;;;;;5.32;73.59;99014.06;1834018;78;21376;-77
2021/01/28 03:42:40;;;;;;;15.63;9.88;;;;;;;5.32;73.51;99010.64;1835631;78;20926;-77
2021/01/28 03:45:11;;;;;;;19.50;9.45;;;;;;;5.30;73.51;99020.30;1836021;78;21792;-78
2021/01/28 03:47:40;;;;;;;13.72;9.88;;;;;;;5.26;73.44;99010.55;1832461;78;20946;-77
2021/01/28 03:50:18;;;;;;;17.37;11.00;;;;;;;5.24;73.50;99016.31;1832545;78;20999;-79
2021/01/28 03:52:50;;;;;;;16.75;10.45;;;;;;;5.23;73.53;99015.96;1815378;78;20902;-79
2021/01/28 03:55:21;;;;;;;20.85;11.70;;;;;;;5.22;73.32;99012.98;1830463;78;20902;-79
2021/01/28 03:57:50;;;;;;;16.20;11.10;;;;;;;5.20;73.38;99004.45;1832755;77;21195;-78
2021/01/28 04:00:25;;;;;;;13.88;11.10;;;;;;;5.19;73.33;99013.19;1832490;77;20938;-81
2021/01/28 04:02:55;;;;;;;25.12;11.28;;;;;;;5.19;73.29;99010.11;1831817;78;20993;-80
2021/01/28 04:05:25;;;;;;;18.12;12.10;;;;;;;5.19;73.43;99002.79;1798042;78;21069;-79
2021/01/28 04:08:04;;;;;;;18.85;12.05;;;;;;;5.19;73.46;99004.09;1795123;78;20950;-80
2021/01/28 04:10:38;;;;;;;17.90;13.20;;;;;;;5.20;73.28;98997.95;1830257;77;21378;-81
2021/01/28 04:13:06;;;;;;;21.10;13.18;;;;;;;5.22;73.26;99011.67;1832383;78;20997;-80
2021/01/28 04:15:36;;;;;;;22.00;12.98;;;;;;;5.22;73.23;99015.58;1831615;78;21395;-81
2021/01/28 04:18:05;;;;;;;25.48;12.55;;;;;;;5.21;73.04;99023.02;1832543;78;20977;-80
2021/01/28 04:20:36;;;;;;;19.87;11.55;;;;;;;5.17;73.04;99011.14;1812419;79;21001;-79
2021/01/28 04:23:05;;;;;;;18.60;11.97;;;;;;;5.16;73.19;99017.29;1812357;79;21399;-80
2021/01/28 04:25:35;;;;;;;22.73;13.80;;;;;;;5.17;73.12;99028.03;1810367;79;21014;-79
2021/01/28 04:28:07;;;;;;;23.73;13.60;;;;;;;5.15;73.09;99022.10;1812722;79;20990;-80
2021/01/28 04:30:43;;;;;;;24.20;14.93;;;;;;;5.13;73.07;99018.77;1811711;79;21037;-78
2021/01/28 04:33:12;;;;;;;21.55;14.43;;;;;;;5.11;73.18;99018.02;1788667;79;21018;-81
2021/01/28 04:35:40;;;;;;;20.72;13.32;;;;;;;5.10;73.00;99026.29;1811778;77;21258;-80
2021/01/28 04:38:09;;;;;;;19.50;13.53;;;;;;;5.08;73.08;99018.23;1809906;79;20927;-78
2021/01/28 04:40:49;;;;;;;27.77;15.53;;;;;;;5.03;73.10;99028.91;1809749;79;20905;-77
2021/01/28 04:43:29;;;;;;;22.73;13.85;;;;;;;5.03;73.21;99013.80;1809972;79;20923;-79
2021/01/28 04:46:38;;;;;;;23.20;13.13;;;;;;;5.04;73.17;99007.66;1810005;78;20943;-78
2021/01/28 04:49:11;;;;;;;21.35;14.38;;;;;;;5.05;73.09;99038.75;1779796;79;21446;-80
2021/01/28 04:51:42;;;;;;;22.80;14.50;;;;;;;5.05;73.18;99041.81;1806064;79;20943;-77
2021/01/28 04:54:24;;;;;;;21.87;13.65;;;;;;;5.07;73.01;99064.61;1810288;78;20954;-77
2021/01/28 04:56:53;;;;;;;20.68;13.22;;;;;;;5.04;72.89;99050.52;1810375;79;20911;-77
2021/01/28 04:59:33;;;;;;;27.07;14.30;;;;;;;4.96;73.07;99065.30;1786276;79;21046;-79
2021/01/28 05:02:05;;;;;;;20.20;12.58;;;;;;;4.90;73.14;99063.08;1812413;79;21165;-78
2021/01/28 05:04:52;;;;;;;22.58;12.65;;;;;;;4.84;73.30;99048.69;1809932;79;21361;-80
2021/01/28 05:07:30;;;;;;;21.07;12.80;;;;;;;4.86;73.37;99041.64;1809039;79;20990;-78
2021/01/28 05:10:21;;;;;;;21.70;13.28;;;;;;;4.86;73.46;99053.33;1811019;79;21440;-80
2021/01/28 05:13:06;;;;;;;22.15;14.50;;;;;;;4.93;73.50;99042.09;1846308;76;22623;-79
2021/01/28 05:15:41;;;;;;;27.22;14.93;;;;;;;4.91;73.33;99049.14;1815946;79;20986;-81
2021/01/28 05:18:34;;;;;;;21.62;13.40;;;;;;;4.89;73.37;99033.68;1799384;77;21374;-79
2021/01/28 05:21:21;;;;;;;21.40;14.28;;;;;;;4.89;73.32;99044.51;1786213;79;21338;-81
2021/01/28 05:24:36;;;;;;;23.45;14.47;;;;;;;4.86;73.34;99055.10;1820586;77;20947;-75
2021/01/28 05:27:26;;;;;;;21.52;12.58;;;;;;;4.84;73.33;99069.47;1820438;79;21384;-73
2021/01/28 05:29:56;;;;;;;25.00;13.58;;;;;;;4.84;73.39;99060.84;1821352;77;20966;-74
2021/01/28 05:32:45;;;;;;;22.62;13.53;;;;;;;4.84;73.55;99080.33;1819477;79;21776;-76
2021/01/28 05:35:31;;;;;;;23.98;14.68;;;;;;;4.84;73.65;99064.27;1814416;79;20907;-74
2021/01/28 05:38:19;;;;;;;21.25;14.05;;;;;;;4.84;73.85;99073.36;1810317;77;20974;-73
2021/01/28 05:40:55;;;;;;;19.23;14.40;;;;;;;4.84;73.90;99066.05;1811293;79;20975;-74
2021/01/28 05:43:36;;;;;;;24.50;14.85;;;;;;;4.81;74.13;99062.34;1818041;77;21013;-74
2021/01/28 05:46:23;;;;;;;29.48;16.15;;;;;;;4.77;74.24;99078.09;1817264;79;22644;-76
2021/01/28 05:49:13;;;;;;;22.82;14.68;;;;;;;4.79;74.50;99080.61;1793644;79;20998;-75
2021/01/28 05:51:44;;;;;;;21.77;13.55;;;;;;;4.80;74.47;99095.72;1784187;79;20954;-76
2021/01/28 05:54:20;;;;;;;20.32;13.70;;;;;;;4.79;74.50;99109.17;1817902;78;21013;-76
2021/01/28 05:57:14;;;;;;;22.10;13.70;;;;;;;4.78;74.71;99114.84;1813174;79;20887;-75
2021/01/28 06:00:11;;;;;;;30.17;16.17;;;;;;;4.80;74.70;99116.03;1817814;77;21820;-74
2021/01/28 06:03:13;;;;;;;25.95;15.55;;;;;;;4.83;74.72;99095.08;1817783;77;21929;-73
2021/01/28 06:06:36;;;;;;;26.25;15.25;;;;;;;4.91;74.49;99103.25;1876140;75;22678;-73
2021/01/28 06:09:48;;;;;;;23.45;14.83;;;;;;;4.89;74.38;99089.96;1819989;77;20908;-70
2021/01/28 06:12:35;;;;;;;27.30;15.58;;;;;;;4.90;74.28;99089.05;1819999;78;21642;-74
2021/01/28 06:15:49;;;;;;;24.27;15.80;;;;;;;4.92;74.15;99089.32;1820063;78;20948;-73
2021/01/28 06:18:35;;;;;;;24.77;15.40;;;;;;;4.91;73.98;99098.06;1817986;77;21051;-74
2021/01/28 06:21:51;;;;;;;23.85;15.75;;;;;;;4.90;74.15;99101.56;1709973;82;21116;-72
2021/01/28 06:25:31;;;;;;;26.80;15.25;;;;;;;5.01;74.42;99105.28;1846040;76;22751;-72
2021/01/28 06:28:14;;;;;;;23.75;16.70;;;;;;;5.01;74.15;99113.08;1818027;78;20931;-72
2021/01/28 06:30:54;;;;;;;28.40;15.32;;;;;;;5.01;74.06;99110.48;1817701;79;21202;-73
2021/01/28 06:34:02;;;;;;;27.62;16.40;;;;;;;4.99;74.08;99099.70;1816405;79;20986;-73
2021/01/28 06:37:12;;;;;;;26.70;16.62;;;;;;;5.03;74.01;99111.22;1817993;78;21045;-77
2021/01/28 06:39:54;;;;;;;30.97;17.27;;;;;;;5.02;74.04;99114.73;1783429;79;20938;-78
2021/01/28 06:42:35;;;;;;;27.25;16.67;;;;;;;5.01;74.25;99106.58;1814223;79;21105;-72
2021/01/28 06:45:15;;;;;;;27.22;16.77;;;;;;;5.03;74.23;99108.16;1816807;78;21410;-74
2021/01/28 06:48:15;;;;;;;25.50;16.32;;;;;;;5.05;74.20;99104.17;1816275;77;21342;-74
2021/01/28 06:51:32;;;;;;;28.05;16.48;;;;;;;5.06;74.26;99096.26;1816049;79;20942;-74
2021/01/28 06:54:09;;;;;;;26.10;16.37;;;;;;;5.06;74.36;99109.72;1817828;77;21360;-74
2021/01/28 06:57:19;;;;;;;28.98;15.50;;;;;;;5.08;74.40;99142.94;1818035;77;20938;-79
2021/01/28 07:00:44;;;;;;;22.93;14.47;;;;;;;5.14;74.57;99119.19;1848135;76;22460;-77
2021/01/28 07:03:51;;;;;;;32.40;17.10;;;;;;;5.09;74.74;99116.87;1818172;78;21444;-80
2021/01/28 07:06:48;;;;;;;28.98;14.85;;;;;;;5.18;74.77;99121.97;1803799;77;21385;-80
2021/01/28 07:09:41;;;;;;;30.20;16.65;;;;;;;5.23;74.58;99138.58;1814690;78;21022;-79
2021/01/28 07:12:14;;;;;;;47.53;18.95;;;;;;;5.18;74.63;99144.89;1786865;79;21002;-72
2021/01/28 07:15:00;;;;;;;30.02;17.25;;;;;;;5.16;74.86;99155.01;1791560;79;21013;-81
2021/01/28 07:17:51;;;;;;;30.00;16.10;;;;;;;5.14;75.11;99160.77;1771801;79;20978;-77
2021/01/28 07:20:36;;;;;;;28.62;16.55;;;;;;;5.13;75.22;99167.70;1818144;78;21368;-76
2021/01/28 07:23:28;;;;;;;28.65;16.50;;;;;;;5.15;75.56;99161.12;1816143;79;21392;-78
2021/01/28 07:26:15;;;;;;;29.18;17.30;;;;;;;5.19;75.66;99167.80;1817791;77;20895;-77
2021/01/28 07:28:44;;;;;;;36.28;17.80;;;;;;;5.24;75.71;99164.92;1817661;78;21015;-76
2021/01/28 07:31:44;;;;;;;36.63;19.57;;;;;;;5.28;75.86;99154.23;1817938;77;20922;-85
2021/01/28 07:34:15;;;;;;;30.65;15.75;;;;;;;5.31;75.93;99170.10;1817043;77;21339;-83
2021/01/28 07:37:20;;;;;;;28.73;15.50;;;;;;;5.29;76.17;99164.16;1817279;78;21022;-83
2021/01/28 07:40:09;;;;;;;30.02;15.55;;;;;;;5.28;76.55;99172.43;1792307;79;20887;-85
2021/01/28 07:42:43;;;;;;;30.40;16.60;;;;;;;5.31;77.05;99172.23;1813620;79;20986;-80
2021/01/28 07:45:36;;;;;;;39.48;20.12;;;;;;;5.34;77.35;99172.06;1818042;79;20918;-80
2021/01/28 07:48:28;;;;;;;27.93;16.87;;;;;;;5.33;77.68;99158.67;1818334;79;21752;-79
2021/01/28 07:51:31;;;;;;;30.88;18.00;;;;;;;5.34;77.98;99146.06;1815223;79;21435;-73
2021/01/28 07:54:03;;;;;;;29.63;17.05;;;;;;;5.33;78.14;99161.28;1818137;79;21009;-83
2021/01/28 07:56:44;;;;;;;27.70;16.70;;;;;;;5.29;78.40;99172.82;1813707;79;20994;-69
2021/01/28 07:59:48;;;;;;;30.60;16.02;;;;;;;5.33;78.65;99154.78;1826603;78;20973;-72
2021/01/28 08:02:29;;;;;;;25.25;17.32;;;;;;;5.38;78.68;99154.49;1831478;78;22396;-71
2021/01/28 08:05:10;;;;;;;28.55;19.30;;;;;;;5.44;78.54;99150.22;1834529;78;20934;-73
2021/01/28 08:07:47;;;;;;;30.02;17.23;;;;;;;5.47;78.40;99156.98;1835436;78;20945;-76
2021/01/28 08:10:34;;;;;;;26.50;16.93;;;;;;;5.46;78.36;99167.03;1833337;78;21352;-79
2021/01/28 08:13:29;;;;;;;32.60;16.77;;;;;;;5.45;78.31;99164.05;1832813;78;20977;-78
2021/01/28 08:16:00;;;;;;;26.85;15.60;;;;;;;5.46;78.46;99157.45;1832764;78;21356;-79
2021/01/28 08:18:40;;;;;;;29.10;16.12;;;;;;;5.46;78.49;99160.53;1832432;77;20938;-76
2021/01/28 08:21:22;;;;;;;30.65;18.57;;;;;;;5.49;78.58;99146.02;1832428;78;21020;-78
2021/01/28 08:23:50;;;;;;;26.90;16.80;;;;;;;5.56;78.78;99130.44;1832304;77;20934;-76
2021/01/28 08:26:34;;;;;;;33.10;19.17;;;;;;;5.69;78.61;99128.72;1832359;77;21582;-75
2021/01/28 08:29:20;;;;;;;26.70;16.00;;;;;;;5.77;78.42;99125.14;1832377;77;21417;-74
2021/01/28 08:31:53;;;;;;;30.60;17.17;;;;;;;5.83;77.96;99114.83;1832328;78;21049;-73
2021/01/28 08:34:26;;;;;;;32.48;16.02;;;;;;;5.83;77.97;99121.80;1832377;78;21009;-77
2021/01/28 08:36:59;;;;;;;37.98;19.07;;;;;;;5.86;78.15;99109.41;1831912;78;21029;-71
2021/01/28 08:39:30;;;;;;;33.80;16.52;;;;;;;5.90;78.04;99108.76;1832357;77;21080;-72
2021/01/28 08:42:13;;;;;;;23.38;15.45;;;;;;;5.92;78.14;99119.42;1832344;77;21359;-72
2021/01/28 08:44:43;;;;;;;28.62;17.87;;;;;;;5.92;77.94;99108.19;1832336;78;21040;-71
2021/01/28 08:47:17;;;;;;;26.60;16.57;;;;;;;5.90;78.07;99106.98;1832390;78;20989;-71
2021/01/28 08:50:02;;;;;;;28.60;16.07;;;;;;;5.95;78.03;99113.22;1832377;78;20922;-71
2021/01/28 08:52:30;;;;;;;27.93;14.85;;;;;;;5.99;78.01;99109.02;1832491;78;20986;-70
2021/01/28 08:54:58;;;;;;;20.92;14.55;;;;;;;6.10;77.89;99103.58;1832493;78;21030;-70
2021/01/28 08:57:26;;;;;;;25.27;13.93;;;;;;;6.16;77.60;99115.72;1832320;78;20922;-74
2021/01/28 08:59:59;;;;;;;24.63;14.35;;;;;;;6.21;77.29;99124.05;1822348;78;21362;-71
2021/01/28 09:02:33;;;;;;;22.40;14.23;;;;;;;6.26;77.12;99127.65;1817381;77;21451;-71
2021/01/28 09:05:11;;;;;;;24.80;14.93;;;;;;;6.28;76.96;99126.25;1817442;77;20938;-70
2021/01/28 09:07:58;;;;;;;27.52;13.93;;;;;;;6.31;76.89;99123.44;1817280;78;21183;-71
2021/01/28 09:10:40;;;;;;;21.87;13.50;;;;;;;6.36;76.68;99139.61;1817198;79;21349;-71
2021/01/28 09:13:25;;;;;;;21.30;12.47;;;;;;;6.39;76.46;99140.22;1817311;79;21428;-71
2021/01/28 09:16:18;;;;;;;21.10;12.60;;;;;;;6.42;76.23;99147.84;1817369;78;21392;-71
2021/01/28 09:18:50;;;;;;;19.90;10.20;;;;;;;6.48;76.18;99155.70;1817358;78;21318;-73
2021/01/28 09:21:24;;;;;;;16.65;9.90;;;;;;;6.52;75.70;99164.98;1817236;79;21427;-71
2021/01/28 09:24:04;;;;;;;15.25;10.35;;;;;;;6.55;75.26;99176.95;1817240;77;21006;-70
2021/01/28 09:26:35;;;;;;;18.98;9.85;;;;;;;6.56;75.13;99169.05;1817268;77;21017;-69
2021/01/28 09:29:25;;;;;;;15.60;9.73;;;;;;;6.57;74.93;99169.41;1817291;77;20951;-71
2021/01/28 09:31:53;;;;;;;19.55;9.40;;;;;;;6.58;74.67;99163.72;1816460;79;21379;-73
2021/01/28 09:34:30;;;;;;;14.95;8.33;;;;;;;6.59;74.48;99168.84;1761219;79;21378;-73
2021/01/28 09:37:14;;;;;;;9.33;6.30;;;;;;;6.61;74.37;99168.27;1817258;79;21377;-71
2021/01/28 09:39:47;;;;;;;12.70;7.70;;;;;;;6.63;74.12;99153.38;1817239;79;21022;-70
2021/01/28 09:42:28;;;;;;;14.87;6.83;;;;;;;6.64;73.90;99138.57;1817210;77;20923;-71
2021/01/28 09:45:10;;;;;;;12.40;7.22;;;;;;;6.64;73.78;99138.09;1817291;78;20899;-74
2021/01/28 09:47:40;;;;;;;15.93;7.67;;;;;;;6.67;73.55;99138.38;1817376;79;21135;-74
2021/01/28 09:50:11;;;;;;;14.50;7.40;;;;;;;6.74;73.54;99117.95;1817159;78;21419;-74
2021/01/28 09:52:43;;;;;;;11.50;6.60;;;;;;;6.82;73.19;99113.03;1817207;78;20922;-73
2021/01/28 09:55:21;;;;;;;13.30;6.58;;;;;;;6.85;72.54;99112.36;1787137;79;21025;-72
2021/01/28 09:57:52;;;;;;;11.35;5.92;;;;;;;6.89;72.71;99110.84;1811329;79;20934;-72
2021/01/28 10:00:22;;;;;;;15.53;6.42;;;;;;;6.95;72.36;99126.06;1827658;78;21215;-74
2021/01/28 10:03:05;;;;;;;11.55;7.75;;;;;;;6.95;72.33;99120.84;1832260;78;21037;-74
2021/01/28 10:05:35;;;;;;;16.52;7.60;;;;;;;6.88;72.49;99121.73;1832390;78;20990;-74
2021/01/28 10:08:04;;;;;;;12.35;6.67;;;;;;;6.93;72.63;99148.30;1804752;78;21021;-74
2021/01/28 10:10:33;;;;;;;12.07;8.45;;;;;;;6.92;72.56;99145.83;1832408;78;20924;-69
2021/01/28 10:13:08;;;;;;;12.68;8.23;;;;;;;6.89;72.46;99142.94;1832341;77;21384;-77
2021/01/28 10:15:36;;;;;;;15.88;7.78;;;;;;;6.85;72.06;99138.42;1832988;78;21913;-73
2021/01/28 10:18:04;;;;;;;15.20;10.38;;;;;;;6.85;72.11;99142.33;1833044;78;21013;-74
2021/01/28 10:20:32;;;;;;;10.32;6.87;;;;;;;6.87;71.82;99146.14;1833479;77;20974;-80
2021/01/28 10:23:04;;;;;;;10.35;4.80;;;;;;;6.93;71.02;99131.37;1832635;78;21002;-75
2021/01/28 10:25:31;;;;;;;6.78;4.42;;;;;;;6.97;69.89;99118.97;1832379;78;21165;-76
2021/01/28 10:27:59;;;;;;;6.10;3.90;;;;;;;7.00;69.48;99117.44;1832179;78;21056;-75
2021/01/28 10:30:28;;;;;;;5.50;4.22;;;;;;;7.02;69.11;99103.84;1832241;78;20930;-75
2021/01/28 10:32:57;;;;;;;7.65;4.55;;;;;;;7.05;68.12;99102.34;1832246;77;20941;-76
2021/01/28 10:35:28;;;;;;;3.02;2.12;;;;;;;7.10;68.14;99088.51;1832401;77;20997;-74
2021/01/28 10:37:56;;;;;;;5.60;2.37;;;;;;;7.15;67.09;99086.87;1832337;77;21346;-75
2021/01/28 10:40:25;;;;;;;4.28;2.87;;;;;;;7.16;65.91;99105.47;1832234;77;20977;-76
2021/01/28 10:42:59;;;;;;;4.65;3.37;;;;;;;7.12;65.46;99117.08;1832298;77;20930;-78
2021/01/28 10:45:31;;;;;;;7.10;3.42;;;;;;;7.09;66.11;99127.70;1832559;78;21349;-72
2021/01/28 10:47:59;;;;;;;3.27;2.98;;;;;;;7.10;65.98;99128.08;1832481;78;20902;-70
2021/01/28 10:50:29;;;;;;;5.67;3.83;;;;;;;7.13;65.89;99122.64;1832219;78;21810;-78
2021/01/28 10:52:57;;;;;;;5.00;4.53;;;;;;;7.25;65.03;99121.32;1832299;78;21479;-75
2021/01/28 10:55:27;;;;;;;9.03;8.20;;;;;;;7.28;64.51;99119.44;1832318;78;20910;-75
2021/01/28 10:57:55;;;;;;;6.80;5.92;;;;;;;7.28;64.55;99104.63;1832269;78;20930;-73
2021/01/28 11:00:24;;;;;;;6.35;5.75;;;;;;;7.21;63.70;99121.17;1823498;77;20998;-76
2021/01/28 11:02:52;;;;;;;8.03;6.03;;;;;;;7.14;63.65;99117.33;1817236;79;21843;-75
2021/01/28 11:05:29;;;;;;;5.60;5.03;;;;;;;7.07;63.64;99131.74;1817102;77;20994;-74
2021/01/28 11:07:57;;;;;;;6.15;4.70;;;;;;;6.99;63.03;99134.86;1817237;79;20934;-75
2021/01/28 11:10:26;;;;;;;4.22;2.95;;;;;;;6.92;63.31;99138.02;1817314;79;21440;-77
2021/01/28 11:12:56;;;;;;;2.22;2.02;;;;;;;6.82;63.38;99122.98;1817255;77;21006;-76
2021/01/28 11:15:26;;;;;;;3.00;1.98;;;;;;;6.74;63.42;99129.68;1817220;78;21194;-75
2021/01/28 11:17:54;;;;;;;3.17;2.10;;;;;;;6.68;63.88;99145.72;1817136;77;20998;-74
2021/01/28 11:20:22;;;;;;;6.30;3.42;;;;;;;6.63;64.27;99127.80;1817136;77;20943;-79
2021/01/28 11:22:50;;;;;;;3.47;2.60;;;;;;;6.63;64.57;99124.72;1817173;79;21037;-77
2021/01/28 11:25:21;;;;;;;3.27;2.50;;;;;;;6.64;64.51;99155.02;1817288;78;20919;-76
2021/01/28 11:27:50;;;;;;;3.75;2.67;;;;;;;6.68;64.53;99143.94;1817195;79;21361;-75
2021/01/28 11:30:20;;;;;;;5.30;3.70;;;;;;;6.70;64.48;99138.16;1817182;79;21326;-77
2021/01/28 11:32:49;;;;;;;4.90;3.55;;;;;;;6.71;63.47;99142.42;1817181;78;20931;-75
2021/01/28 11:35:20;;;;;;;3.08;2.77;;;;;;;6.68;63.47;99180.89;1817206;79;20922;-76
2021/01/28 11:37:49;;;;;;;3.65;3.22;;;;;;;6.65;62.84;99184.53;1817300;79;21061;-74
2021/01/28 11:40:21;;;;;;;3.33;2.98;;;;;;;6.60;62.94;99190.50;1817186;78;21208;-73
2021/01/28 11:42:50;;;;;;;2.85;2.50;;;;;;;6.52;63.24;99192.33;1817077;77;22994;-81
2021/01/28 11:45:24;;;;;;;2.80;2.60;;;;;;;6.46;63.58;99197.11;1817295;77;21496;-72
2021/01/28 11:47:52;;;;;;;;;;;;;;;6.36;63.79;99185.17;1820237;78;20998;-75
2021/01/28 11:50:21;;;;;;;3.52;2.15;;;;;;;6.27;63.21;99197.02;1817454;79;20149;-75
2021/01/28 11:52:51;;;;;;;3.45;2.10;;;;;;;6.22;63.29;99197.76;1817401;79;21393;-75
2021/01/28 11:55:22;;;;;;;2.22;1.70;;;;;;;6.19;63.13;99190.98;1817532;79;20950;-74
2021/01/28 11:57:51;;;;;;;3.80;2.75;;;;;;;6.18;63.44;99185.87;1817412;79;21046;-75
2021/01/28 12:00:19;;;;;;;5.25;3.08;;;;;;;6.15;63.31;99164.79;1817279;77;21467;-74
2021/01/28 12:02:47;;;;;;;4.87;3.12;;;;;;;6.17;63.53;99175.11;1817507;78;21966;-74
2021/01/28 12:05:17;;;;;;;4.05;2.92;;;;;;;6.19;63.52;99169.34;1817481;77;21496;-75
2021/01/28 12:07:46;;;;;;;5.05;3.15;;;;;;;6.15;62.86;99179.58;1817326;79;20927;-74
2021/01/28 12:10:16;;;;;;;4.62;2.55;;;;;;;6.11;63.46;99184.14;1817412;79;20903;-74
2021/01/28 12:12:48;;;;;;;3.80;2.77;;;;;;;6.07;61.77;99200.05;1817466;79;20939;-77
2021/01/28 12:15:18;;;;;;;3.40;2.17;;;;;;;6.01;61.67;99176.10;1818203;78;21535;-77
2021/01/28 12:17:47;;;;;;;5.50;3.00;;;;;;;6.01;61.50;99184.38;1817734;79;21467;-75
2021/01/28 12:20:19;;;;;;;4.20;3.00;;;;;;;6.00;62.31;99201.77;1817255;77;20954;-76